sensor_id;sensor_type;location;lat;lon;timestamp;temperature;humidity
10149;DHT22;5115;50.920;6.376;2022-12-29T00:01:54;12.40;99.90
10149;DHT22;5115;50.920;6.376;2022-12-29T00:04:21;12.40;99.90
10149;DHT22;5115;50.920;6.376;2022-12-29T00:06:47;12.40;99.90
10149;DHT22;5115;50.920;6.376;2022-12-29T00:09:15;12.40;99.90
10149;DHT22;5115;50.920;6.376;2022-12-29T00:11:40;12.40;99.90
10149;DHT22;5115;50.920;6.376;2022-12-29T00:14:08;13.00;99.90
10149;DHT22;5115;50.920;6.376;2022-12-29T00:16:53;12.50;99.90
10149;DHT22;5115;50.920;6.376;2022-12-29T00:19:18;12.50;99.90
10149;DHT22;5115;50.920;6.376;2022-12-29T00:22:11;12.50;99.90
10149;DHT22;5115;50.920;6.376;2022-12-29T00:24:56;12.50;99.90
10149;DHT22;5115;50.920;6.376;2022-12-29T00:27:34;12.60;99.90
10149;DHT22;5115;50.920;6.376;2022-12-29T00:30:21;12.60;99.90
10149;DHT22;5115;50.920;6.376;2022-12-29T00:33:13;12.50;99.90
10149;DHT22;5115;50.920;6.376;2022-12-29T00:36:07;12.60;99.90
10149;DHT22;5115;50.920;6.376;2022-12-29T00:38:36;12.60;99.90
10149;DHT22;5115;50.920;6.376;2022-12-29T00:41:21;12.60;99.90
10149;DHT22;5115;50.920;6.376;2022-12-29T00:44:07;12.60;99.90
10149;DHT22;5115;50.920;6.376;2022-12-29T00:46:37;12.70;99.90
10149;DHT22;5115;50.920;6.376;2022-12-29T00:49:04;12.60;99.90
10149;DHT22;5115;50.920;6.376;2022-12-29T00:51:49;12.50;99.90
10149;DHT22;5115;50.920;6.376;2022-12-29T00:54:15;12.50;99.90
10149;DHT22;5115;50.920;6.376;2022-12-29T00:56:41;12.40;99.90
10149;DHT22;5115;50.920;6.376;2022-12-29T00:59:08;12.30;99.90
10149;DHT22;5115;50.920;6.376;2022-12-29T01:01:35;12.30;99.90
10149;DHT22;5115;50.920;6.376;2022-12-29T01:04:01;12.30;99.90
10149;DHT22;5115;50.920;6.376;2022-12-29T01:06:27;12.30;99.90
10149;DHT22;5115;50.920;6.376;2022-12-29T01:08:52;12.30;99.90
10149;DHT22;5115;50.920;6.376;2022-12-29T01:11:40;12.80;99.90
10149;DHT22;5115;50.920;6.376;2022-12-29T01:14:06;12.40;99.90
10149;DHT22;5115;50.920;6.376;2022-12-29T01:16:32;12.40;99.90
10149;DHT22;5115;50.920;6.376;2022-12-29T01:18:57;12.50;99.90
10149;DHT22;5115;50.920;6.376;2022-12-29T01:21:23;12.50;99.90
10149;DHT22;5115;50.920;6.376;2022-12-29T01:23:52;12.50;99.90
10149;DHT22;5115;50.920;6.376;2022-12-29T01:26:21;12.70;99.90
10149;DHT22;5115;50.920;6.376;2022-12-29T01:28:49;12.50;99.90
10149;DHT22;5115;50.920;6.376;2022-12-29T01:31:18;12.50;99.90
10149;DHT22;5115;50.920;6.376;2022-12-29T01:33:44;12.50;99.90
10149;DHT22;5115;50.920;6.376;2022-12-29T01:36:12;12.50;99.90
10149;DHT22;5115;50.920;6.376;2022-12-29T01:38:38;12.50;99.90
10149;DHT22;5115;50.920;6.376;2022-12-29T01:41:06;12.50;99.90
10149;DHT22;5115;50.920;6.376;2022-12-29T01:48:55;12.60;99.90
10149;DHT22;5115;50.920;6.376;2022-12-29T01:51:26;12.50;99.90
10149;DHT22;5115;50.920;6.376;2022-12-29T01:53:57;12.50;99.90
10149;DHT22;5115;50.920;6.376;2022-12-29T01:56:32;12.50;99.90
10149;DHT22;5115;50.920;6.376;2022-12-29T01:59:03;12.50;99.90
10149;DHT22;5115;50.920;6.376;2022-12-29T02:01:30;12.50;99.90
10149;DHT22;5115;50.920;6.376;2022-12-29T02:03:56;12.50;99.90
10149;DHT22;5115;50.920;6.376;2022-12-29T02:06:23;12.50;99.90
10149;DHT22;5115;50.920;6.376;2022-12-29T02:08:52;12.50;99.90
10149;DHT22;5115;50.920;6.376;2022-12-29T02:11:20;12.60;99.90
10149;DHT22;5115;50.920;6.376;2022-12-29T02:13:46;12.50;99.90
10149;DHT22;5115;50.920;6.376;2022-12-29T02:28:03;12.70;99.90
10149;DHT22;5115;50.920;6.376;2022-12-29T02:30:38;12.70;99.90
10149;DHT22;5115;50.920;6.376;2022-12-29T02:33:21;12.60;99.90
10149;DHT22;5115;50.920;6.376;2022-12-29T02:36:07;12.80;99.90
10149;DHT22;5115;50.920;6.376;2022-12-29T02:41:57;12.70;99.90
10149;DHT22;5115;50.920;6.376;2022-12-29T02:44:34;12.70;99.90
10149;DHT22;5115;50.920;6.376;2022-12-29T02:47:06;12.80;99.90
10149;DHT22;5115;50.920;6.376;2022-12-29T02:52:27;12.80;99.90
10149;DHT22;5115;50.920;6.376;2022-12-29T02:54:55;12.80;99.90
10149;DHT22;5115;50.920;6.376;2022-12-29T02:59:57;12.80;99.90
10149;DHT22;5115;50.920;6.376;2022-12-29T03:02:37;12.80;99.90
10149;DHT22;5115;50.920;6.376;2022-12-29T03:05:22;12.70;99.90
10149;DHT22;5115;50.920;6.376;2022-12-29T03:08:27;12.80;99.90
10149;DHT22;5115;50.920;6.376;2022-12-29T03:13:47;12.70;99.90
10149;DHT22;5115;50.920;6.376;2022-12-29T03:19:32;12.70;99.90
10149;DHT22;5115;50.920;6.376;2022-12-29T03:22:06;12.70;99.90
10149;DHT22;5115;50.920;6.376;2022-12-29T03:24:57;12.80;99.90
10149;DHT22;5115;50.920;6.376;2022-12-29T03:27:27;12.80;99.90
10149;DHT22;5115;50.920;6.376;2022-12-29T03:29:59;12.80;99.90
10149;DHT22;5115;50.920;6.376;2022-12-29T03:32:32;12.80;99.90
10149;DHT22;5115;50.920;6.376;2022-12-29T03:34:59;12.80;99.90
10149;DHT22;5115;50.920;6.376;2022-12-29T03:37:30;12.70;99.90
10149;DHT22;5115;50.920;6.376;2022-12-29T03:39:56;12.80;99.90
10149;DHT22;5115;50.920;6.376;2022-12-29T03:42:25;12.70;99.90
10149;DHT22;5115;50.920;6.376;2022-12-29T03:44:56;12.70;99.90
10149;DHT22;5115;50.920;6.376;2022-12-29T03:47:22;12.80;99.90
10149;DHT22;5115;50.920;6.376;2022-12-29T03:49:49;12.70;99.90
10149;DHT22;5115;50.920;6.376;2022-12-29T03:52:14;12.70;99.90
10149;DHT22;5115;50.920;6.376;2022-12-29T03:54:40;12.70;99.90
10149;DHT22;5115;50.920;6.376;2022-12-29T03:57:06;11.70;99.90
10149;DHT22;5115;50.920;6.376;2022-12-29T03:59:31;12.70;99.90
10149;DHT22;5115;50.920;6.376;2022-12-29T04:01:57;12.80;99.90
10149;DHT22;5115;50.920;6.376;2022-12-29T04:04:22;12.80;99.90
10149;DHT22;5115;50.920;6.376;2022-12-29T04:06:48;12.80;99.90
10149;DHT22;5115;50.920;6.376;2022-12-29T04:09:13;12.80;99.90
10149;DHT22;5115;50.920;6.376;2022-12-29T04:11:39;12.80;99.90
10149;DHT22;5115;50.920;6.376;2022-12-29T04:14:04;12.70;99.90
10149;DHT22;5115;50.920;6.376;2022-12-29T04:16:30;12.70;99.90
10149;DHT22;5115;50.920;6.376;2022-12-29T04:18:56;12.80;99.90
10149;DHT22;5115;50.920;6.376;2022-12-29T04:21:21;12.80;99.90
10149;DHT22;5115;50.920;6.376;2022-12-29T04:23:47;12.90;99.90
10149;DHT22;5115;50.920;6.376;2022-12-29T04:26:13;12.80;99.90
10149;DHT22;5115;50.920;6.376;2022-12-29T04:28:38;13.00;99.90
10149;DHT22;5115;50.920;6.376;2022-12-29T04:31:04;12.90;99.90
10149;DHT22;5115;50.920;6.376;2022-12-29T04:33:30;13.00;99.90
10149;DHT22;5115;50.920;6.376;2022-12-29T04:35:55;13.00;99.90
10149;DHT22;5115;50.920;6.376;2022-12-29T04:38:22;12.90;99.90
10149;DHT22;5115;50.920;6.376;2022-12-29T04:40:49;12.90;99.90
10149;DHT22;5115;50.920;6.376;2022-12-29T04:43:15;12.90;99.90
10149;DHT22;5115;50.920;6.376;2022-12-29T04:45:48;12.90;99.90
10149;DHT22;5115;50.920;6.376;2022-12-29T04:48:14;12.90;99.90
10149;DHT22;5115;50.920;6.376;2022-12-29T04:50:40;12.80;99.90
10149;DHT22;5115;50.920;6.376;2022-12-29T04:53:06;12.80;99.90
10149;DHT22;5115;50.920;6.376;2022-12-29T04:55:32;12.80;99.90
10149;DHT22;5115;50.920;6.376;2022-12-29T04:57:58;12.80;99.90
10149;DHT22;5115;50.920;6.376;2022-12-29T05:00:23;12.70;99.90
10149;DHT22;5115;50.920;6.376;2022-12-29T05:02:49;12.80;99.90
10149;DHT22;5115;50.920;6.376;2022-12-29T05:05:14;12.80;99.90
10149;DHT22;5115;50.920;6.376;2022-12-29T05:07:40;12.80;99.90
10149;DHT22;5115;50.920;6.376;2022-12-29T05:10:07;12.90;99.90
10149;DHT22;5115;50.920;6.376;2022-12-29T05:12:34;12.90;99.90
10149;DHT22;5115;50.920;6.376;2022-12-29T05:15:00;12.80;99.90
10149;DHT22;5115;50.920;6.376;2022-12-29T05:17:26;12.80;99.90
10149;DHT22;5115;50.920;6.376;2022-12-29T05:19:51;12.80;99.90
10149;DHT22;5115;50.920;6.376;2022-12-29T05:22:17;12.80;99.90
10149;DHT22;5115;50.920;6.376;2022-12-29T05:24:42;12.80;99.90
10149;DHT22;5115;50.920;6.376;2022-12-29T05:27:08;12.70;99.90
10149;DHT22;5115;50.920;6.376;2022-12-29T05:29:33;12.60;99.90
10149;DHT22;5115;50.920;6.376;2022-12-29T05:31:59;12.60;99.90
10149;DHT22;5115;50.920;6.376;2022-12-29T05:34:24;12.60;99.90
10149;DHT22;5115;50.920;6.376;2022-12-29T05:36:50;12.60;99.90
10149;DHT22;5115;50.920;6.376;2022-12-29T05:39:16;12.60;99.90
10149;DHT22;5115;50.920;6.376;2022-12-29T05:41:41;12.60;99.90
10149;DHT22;5115;50.920;6.376;2022-12-29T05:44:07;12.50;99.90
10149;DHT22;5115;50.920;6.376;2022-12-29T05:46:33;12.50;99.90
10149;DHT22;5115;50.920;6.376;2022-12-29T05:48:58;12.50;99.90
10149;DHT22;5115;50.920;6.376;2022-12-29T05:51:24;12.50;99.90
10149;DHT22;5115;50.920;6.376;2022-12-29T05:53:49;12.50;99.90
10149;DHT22;5115;50.920;6.376;2022-12-29T05:56:15;12.50;99.90
10149;DHT22;5115;50.920;6.376;2022-12-29T05:58:41;12.50;99.90
10149;DHT22;5115;50.920;6.376;2022-12-29T06:01:06;12.40;99.90
10149;DHT22;5115;50.920;6.376;2022-12-29T06:03:32;12.50;99.90
10149;DHT22;5115;50.920;6.376;2022-12-29T06:05:57;12.50;99.90
10149;DHT22;5115;50.920;6.376;2022-12-29T06:08:23;12.50;99.90
10149;DHT22;5115;50.920;6.376;2022-12-29T06:10:50;12.50;99.90
10149;DHT22;5115;50.920;6.376;2022-12-29T06:13:15;12.50;99.90
10149;DHT22;5115;50.920;6.376;2022-12-29T06:15:41;12.50;99.90
10149;DHT22;5115;50.920;6.376;2022-12-29T06:18:07;12.40;99.90
10149;DHT22;5115;50.920;6.376;2022-12-29T06:20:32;12.40;99.90
10149;DHT22;5115;50.920;6.376;2022-12-29T06:22:58;12.30;99.90
10149;DHT22;5115;50.920;6.376;2022-12-29T06:25:23;12.40;99.90
10149;DHT22;5115;50.920;6.376;2022-12-29T06:27:49;12.40;99.90
10149;DHT22;5115;50.920;6.376;2022-12-29T06:30:14;12.40;99.90
10149;DHT22;5115;50.920;6.376;2022-12-29T06:32:41;12.40;99.90
10149;DHT22;5115;50.920;6.376;2022-12-29T06:35:07;12.40;99.90
10149;DHT22;5115;50.920;6.376;2022-12-29T06:37:32;12.40;99.90
10149;DHT22;5115;50.920;6.376;2022-12-29T06:39:58;12.40;99.90
10149;DHT22;5115;50.920;6.376;2022-12-29T06:42:23;12.40;99.90
10149;DHT22;5115;50.920;6.376;2022-12-29T06:44:49;12.40;99.90
10149;DHT22;5115;50.920;6.376;2022-12-29T06:47:15;12.40;99.90
10149;DHT22;5115;50.920;6.376;2022-12-29T06:49:40;12.40;99.90
10149;DHT22;5115;50.920;6.376;2022-12-29T06:52:06;12.50;99.90
10149;DHT22;5115;50.920;6.376;2022-12-29T06:54:32;12.50;99.90
10149;DHT22;5115;50.920;6.376;2022-12-29T06:56:57;12.40;99.90
10149;DHT22;5115;50.920;6.376;2022-12-29T06:59:23;12.40;99.90
10149;DHT22;5115;50.920;6.376;2022-12-29T07:01:50;12.40;99.90
10149;DHT22;5115;50.920;6.376;2022-12-29T07:04:15;12.50;99.90
10149;DHT22;5115;50.920;6.376;2022-12-29T07:06:41;12.40;99.90
10149;DHT22;5115;50.920;6.376;2022-12-29T07:09:08;12.50;99.90
10149;DHT22;5115;50.920;6.376;2022-12-29T07:11:34;12.40;99.90
10149;DHT22;5115;50.920;6.376;2022-12-29T07:14:00;12.40;99.90
10149;DHT22;5115;50.920;6.376;2022-12-29T07:16:25;12.40;99.90
10149;DHT22;5115;50.920;6.376;2022-12-29T07:18:51;12.40;99.90
10149;DHT22;5115;50.920;6.376;2022-12-29T07:21:18;12.40;99.90
10149;DHT22;5115;50.920;6.376;2022-12-29T07:23:44;12.50;99.90
10149;DHT22;5115;50.920;6.376;2022-12-29T07:26:12;12.40;99.90
10149;DHT22;5115;50.920;6.376;2022-12-29T07:28:38;12.40;99.90
10149;DHT22;5115;50.920;6.376;2022-12-29T07:31:04;12.50;99.90
10149;DHT22;5115;50.920;6.376;2022-12-29T07:33:31;12.50;99.90
10149;DHT22;5115;50.920;6.376;2022-12-29T07:35:58;12.50;99.90
10149;DHT22;5115;50.920;6.376;2022-12-29T07:38:24;12.40;99.90
10149;DHT22;5115;50.920;6.376;2022-12-29T07:40:50;12.40;99.90
10149;DHT22;5115;50.920;6.376;2022-12-29T07:43:15;12.40;99.90
10149;DHT22;5115;50.920;6.376;2022-12-29T07:45:41;12.30;99.90
10149;DHT22;5115;50.920;6.376;2022-12-29T07:48:06;12.30;99.90
10149;DHT22;5115;50.920;6.376;2022-12-29T07:50:36;12.30;99.90
10149;DHT22;5115;50.920;6.376;2022-12-29T07:53:02;12.30;99.90
10149;DHT22;5115;50.920;6.376;2022-12-29T07:55:28;12.20;99.90
10149;DHT22;5115;50.920;6.376;2022-12-29T07:57:54;12.20;99.90
10149;DHT22;5115;50.920;6.376;2022-12-29T08:00:20;12.20;99.90
10149;DHT22;5115;50.920;6.376;2022-12-29T08:02:46;12.20;99.90
10149;DHT22;5115;50.920;6.376;2022-12-29T08:05:11;12.20;99.90
10149;DHT22;5115;50.920;6.376;2022-12-29T08:07:37;12.10;99.90
10149;DHT22;5115;50.920;6.376;2022-12-29T08:10:03;12.10;99.90
10149;DHT22;5115;50.920;6.376;2022-12-29T08:12:29;12.20;99.90
10149;DHT22;5115;50.920;6.376;2022-12-29T08:14:54;12.20;99.90
10149;DHT22;5115;50.920;6.376;2022-12-29T08:17:20;12.20;99.90
10149;DHT22;5115;50.920;6.376;2022-12-29T08:19:45;12.30;99.90
10149;DHT22;5115;50.920;6.376;2022-12-29T08:22:12;13.40;99.90
10149;DHT22;5115;50.920;6.376;2022-12-29T08:24:38;12.70;99.90
10149;DHT22;5115;50.920;6.376;2022-12-29T08:27:03;12.70;99.90
10149;DHT22;5115;50.920;6.376;2022-12-29T08:29:29;12.70;99.90
10149;DHT22;5115;50.920;6.376;2022-12-29T08:31:54;12.50;99.90
10149;DHT22;5115;50.920;6.376;2022-12-29T08:34:20;12.60;99.90
10149;DHT22;5115;50.920;6.376;2022-12-29T08:36:45;13.10;99.90
10149;DHT22;5115;50.920;6.376;2022-12-29T08:39:11;13.70;99.90
10149;DHT22;5115;50.920;6.376;2022-12-29T08:41:36;14.50;99.90
10149;DHT22;5115;50.920;6.376;2022-12-29T08:44:02;15.10;99.90
10149;DHT22;5115;50.920;6.376;2022-12-29T08:46:29;15.60;99.90
10149;DHT22;5115;50.920;6.376;2022-12-29T08:48:54;16.00;99.90
10149;DHT22;5115;50.920;6.376;2022-12-29T08:51:20;16.50;99.90
10149;DHT22;5115;50.920;6.376;2022-12-29T08:53:45;16.80;99.90
10149;DHT22;5115;50.920;6.376;2022-12-29T08:56:11;16.90;99.90
10149;DHT22;5115;50.920;6.376;2022-12-29T08:58:37;16.90;99.90
10149;DHT22;5115;50.920;6.376;2022-12-29T09:01:03;16.60;99.90
10149;DHT22;5115;50.920;6.376;2022-12-29T09:03:29;16.70;99.90
10149;DHT22;5115;50.920;6.376;2022-12-29T09:05:55;17.10;99.90
10149;DHT22;5115;50.920;6.376;2022-12-29T09:08:21;17.30;99.90
10149;DHT22;5115;50.920;6.376;2022-12-29T09:10:47;17.00;99.90
10149;DHT22;5115;50.920;6.376;2022-12-29T09:13:13;16.80;99.90
10149;DHT22;5115;50.920;6.376;2022-12-29T09:15:39;16.80;99.90
10149;DHT22;5115;50.920;6.376;2022-12-29T09:18:06;16.80;99.90
10149;DHT22;5115;50.920;6.376;2022-12-29T09:20:32;17.40;99.90
10149;DHT22;5115;50.920;6.376;2022-12-29T09:22:57;17.20;99.90
10149;DHT22;5115;50.920;6.376;2022-12-29T09:25:24;17.30;99.90
10149;DHT22;5115;50.920;6.376;2022-12-29T09:27:50;17.70;99.90
10149;DHT22;5115;50.920;6.376;2022-12-29T09:30:18;17.70;99.90
10149;DHT22;5115;50.920;6.376;2022-12-29T09:32:44;17.70;99.90
10149;DHT22;5115;50.920;6.376;2022-12-29T09:35:09;17.60;99.90
10149;DHT22;5115;50.920;6.376;2022-12-29T09:37:35;17.70;99.90
10149;DHT22;5115;50.920;6.376;2022-12-29T09:40:24;17.30;99.90
10149;DHT22;5115;50.920;6.376;2022-12-29T09:45:53;17.40;99.90
10149;DHT22;5115;50.920;6.376;2022-12-29T09:48:33;17.60;99.90
10149;DHT22;5115;50.920;6.376;2022-12-29T09:51:03;17.30;99.90
10149;DHT22;5115;50.920;6.376;2022-12-29T09:53:38;16.70;99.90
10149;DHT22;5115;50.920;6.376;2022-12-29T09:56:15;16.50;99.90
10149;DHT22;5115;50.920;6.376;2022-12-29T09:58:54;16.60;99.90
10149;DHT22;5115;50.920;6.376;2022-12-29T10:01:29;16.60;99.90
10149;DHT22;5115;50.920;6.376;2022-12-29T10:03:57;16.50;99.90
10149;DHT22;5115;50.920;6.376;2022-12-29T10:14:55;15.40;99.90
10149;DHT22;5115;50.920;6.376;2022-12-29T10:25:45;15.90;99.90
10149;DHT22;5115;50.920;6.376;2022-12-29T10:28:23;15.90;99.90
10149;DHT22;5115;50.920;6.376;2022-12-29T10:30:49;15.80;99.90
10149;DHT22;5115;50.920;6.376;2022-12-29T10:33:22;15.70;99.90
10149;DHT22;5115;50.920;6.376;2022-12-29T10:35:50;15.80;99.90
10149;DHT22;5115;50.920;6.376;2022-12-29T10:38:39;16.20;99.90
10149;DHT22;5115;50.920;6.376;2022-12-29T10:41:23;16.90;99.90
10149;DHT22;5115;50.920;6.376;2022-12-29T10:43:53;17.50;99.90
10149;DHT22;5115;50.920;6.376;2022-12-29T10:46:23;17.80;99.90
10149;DHT22;5115;50.920;6.376;2022-12-29T10:48:48;17.70;99.90
10149;DHT22;5115;50.920;6.376;2022-12-29T10:51:38;17.80;99.90
10149;DHT22;5115;50.920;6.376;2022-12-29T10:54:11;18.20;99.90
10149;DHT22;5115;50.920;6.376;2022-12-29T10:59:30;17.60;99.90
10149;DHT22;5115;50.920;6.376;2022-12-29T11:05:00;17.40;99.90
10149;DHT22;5115;50.920;6.376;2022-12-29T11:07:34;17.60;99.90
10149;DHT22;5115;50.920;6.376;2022-12-29T11:10:20;17.20;99.90
10149;DHT22;5115;50.920;6.376;2022-12-29T11:12:58;17.00;99.90
10149;DHT22;5115;50.920;6.376;2022-12-29T11:15:26;16.40;99.90
10149;DHT22;5115;50.920;6.376;2022-12-29T11:17:57;16.00;99.90
10149;DHT22;5115;50.920;6.376;2022-12-29T11:20:37;15.90;99.90
10149;DHT22;5115;50.920;6.376;2022-12-29T11:23:21;15.30;99.90
10149;DHT22;5115;50.920;6.376;2022-12-29T11:26:23;14.90;99.90
10149;DHT22;5115;50.920;6.376;2022-12-29T11:31:51;14.20;99.90
10149;DHT22;5115;50.920;6.376;2022-12-29T11:36:53;14.00;99.90
10149;DHT22;5115;50.920;6.376;2022-12-29T11:39:57;13.60;99.90
10149;DHT22;5115;50.920;6.376;2022-12-29T11:45:06;13.40;99.90
10149;DHT22;5115;50.920;6.376;2022-12-29T11:47:35;13.30;99.90
10149;DHT22;5115;50.920;6.376;2022-12-29T11:50:04;13.30;99.90
10149;DHT22;5115;50.920;6.376;2022-12-29T11:52:34;13.20;99.90
10149;DHT22;5115;50.920;6.376;2022-12-29T11:55:02;14.60;99.90
10149;DHT22;5115;50.920;6.376;2022-12-29T11:57:30;13.00;99.90
10149;DHT22;5115;50.920;6.376;2022-12-29T11:59:59;13.00;99.90
10149;DHT22;5115;50.920;6.376;2022-12-29T12:03:04;13.00;99.90
10149;DHT22;5115;50.920;6.376;2022-12-29T12:05:58;12.90;99.90
10149;DHT22;5115;50.920;6.376;2022-12-29T12:08:54;13.10;99.90
10149;DHT22;5115;50.920;6.376;2022-12-29T12:11:24;13.10;99.90
10149;DHT22;5115;50.920;6.376;2022-12-29T12:17:04;13.20;99.90
10149;DHT22;5115;50.920;6.376;2022-12-29T12:19:57;13.30;99.90
10149;DHT22;5115;50.920;6.376;2022-12-29T12:22:33;13.40;99.90
10149;DHT22;5115;50.920;6.376;2022-12-29T12:25:13;13.60;99.90
10149;DHT22;5115;50.920;6.376;2022-12-29T12:27:52;13.60;99.90
10149;DHT22;5115;50.920;6.376;2022-12-29T12:30:20;13.60;99.90
10149;DHT22;5115;50.920;6.376;2022-12-29T12:41:13;13.80;99.90
10149;DHT22;5115;50.920;6.376;2022-12-29T12:46:33;13.50;99.90
10149;DHT22;5115;50.920;6.376;2022-12-29T12:49:11;13.30;99.90
10149;DHT22;5115;50.920;6.376;2022-12-29T12:57:38;13.40;99.90
10149;DHT22;5115;50.920;6.376;2022-12-29T13:00:12;13.30;99.90
10149;DHT22;5115;50.920;6.376;2022-12-29T13:11:51;13.10;99.90
10149;DHT22;5115;50.920;6.376;2022-12-29T13:17:44;13.00;99.90
10149;DHT22;5115;50.920;6.376;2022-12-29T13:20:24;12.90;99.90
10149;DHT22;5115;50.920;6.376;2022-12-29T13:22:57;12.80;99.90
10149;DHT22;5115;50.920;6.376;2022-12-29T13:25:45;12.70;99.90
10149;DHT22;5115;50.920;6.376;2022-12-29T13:28:24;12.60;99.90
10149;DHT22;5115;50.920;6.376;2022-12-29T13:31:10;12.50;99.90
10149;DHT22;5115;50.920;6.376;2022-12-29T13:34:26;12.50;99.90
10149;DHT22;5115;50.920;6.376;2022-12-29T13:36:40;12.40;99.90
10149;DHT22;5115;50.920;6.376;2022-12-29T13:41:56;12.40;99.90
10149;DHT22;5115;50.920;6.376;2022-12-29T13:44:28;12.50;99.90
10149;DHT22;5115;50.920;6.376;2022-12-29T13:46:59;12.50;99.90
10149;DHT22;5115;50.920;6.376;2022-12-29T13:49:26;12.50;99.90
10149;DHT22;5115;50.920;6.376;2022-12-29T13:52:04;12.40;99.90
10149;DHT22;5115;50.920;6.376;2022-12-29T13:57:48;12.50;99.90
10149;DHT22;5115;50.920;6.376;2022-12-29T14:00:18;12.40;99.90
10149;DHT22;5115;50.920;6.376;2022-12-29T14:07:49;12.60;99.90
10149;DHT22;5115;50.920;6.376;2022-12-29T14:10:36;12.50;99.90
10149;DHT22;5115;50.920;6.376;2022-12-29T14:13:14;12.50;99.90
10149;DHT22;5115;50.920;6.376;2022-12-29T14:15:43;12.40;99.90
10149;DHT22;5115;50.920;6.376;2022-12-29T14:21:31;12.20;99.90
10149;DHT22;5115;50.920;6.376;2022-12-29T14:23:38;12.20;99.90
10149;DHT22;5115;50.920;6.376;2022-12-29T14:31:04;12.00;99.90
10149;DHT22;5115;50.920;6.376;2022-12-29T14:33:32;12.00;99.90
10149;DHT22;5115;50.920;6.376;2022-12-29T14:37:22;12.10;99.90
10149;DHT22;5115;50.920;6.376;2022-12-29T14:39:38;12.10;99.90
10149;DHT22;5115;50.920;6.376;2022-12-29T14:44:55;11.90;99.90
10149;DHT22;5115;50.920;6.376;2022-12-29T14:47:31;11.80;99.90
10149;DHT22;5115;50.920;6.376;2022-12-29T14:50:24;11.80;99.90
10149;DHT22;5115;50.920;6.376;2022-12-29T14:53:04;11.80;99.90
10149;DHT22;5115;50.920;6.376;2022-12-29T14:55:41;11.90;99.90
10149;DHT22;5115;50.920;6.376;2022-12-29T14:58:27;11.90;99.90
10149;DHT22;5115;50.920;6.376;2022-12-29T15:00:54;11.90;99.90
10149;DHT22;5115;50.920;6.376;2022-12-29T15:03:28;11.90;99.90
10149;DHT22;5115;50.920;6.376;2022-12-29T15:08:37;11.90;99.90
10149;DHT22;5115;50.920;6.376;2022-12-29T15:11:12;11.90;99.90
10149;DHT22;5115;50.920;6.376;2022-12-29T15:14:23;11.90;99.90
10149;DHT22;5115;50.920;6.376;2022-12-29T15:16:57;11.90;99.90
10149;DHT22;5115;50.920;6.376;2022-12-29T15:19:25;11.80;99.90
10149;DHT22;5115;50.920;6.376;2022-12-29T15:22:14;11.70;99.90
10149;DHT22;5115;50.920;6.376;2022-12-29T15:24:43;11.80;99.90
10149;DHT22;5115;50.920;6.376;2022-12-29T15:27:18;11.70;99.90
10149;DHT22;5115;50.920;6.376;2022-12-29T15:29:55;11.80;99.90
10149;DHT22;5115;50.920;6.376;2022-12-29T15:32:27;11.90;99.90
10149;DHT22;5115;50.920;6.376;2022-12-29T15:35:00;11.80;99.90
10149;DHT22;5115;50.920;6.376;2022-12-29T15:37:40;11.60;99.90
10149;DHT22;5115;50.920;6.376;2022-12-29T15:40:29;11.60;99.90
10149;DHT22;5115;50.920;6.376;2022-12-29T15:43:24;11.50;99.90
10149;DHT22;5115;50.920;6.376;2022-12-29T15:45:47;11.50;99.90
10149;DHT22;5115;50.920;6.376;2022-12-29T15:48:18;11.50;99.90
10149;DHT22;5115;50.920;6.376;2022-12-29T15:50:45;11.40;99.90
10149;DHT22;5115;50.920;6.376;2022-12-29T15:53:20;11.40;99.90
10149;DHT22;5115;50.920;6.376;2022-12-29T15:56:10;11.40;99.90
10149;DHT22;5115;50.920;6.376;2022-12-29T15:58:44;11.30;99.90
10149;DHT22;5115;50.920;6.376;2022-12-29T16:01:18;11.30;99.90
10149;DHT22;5115;50.920;6.376;2022-12-29T16:03:45;11.20;99.90
10149;DHT22;5115;50.920;6.376;2022-12-29T16:06:31;11.20;99.90
10149;DHT22;5115;50.920;6.376;2022-12-29T16:08:59;11.30;99.90
10149;DHT22;5115;50.920;6.376;2022-12-29T16:11:26;11.20;99.90
10149;DHT22;5115;50.920;6.376;2022-12-29T16:13:53;11.20;99.90
10149;DHT22;5115;50.920;6.376;2022-12-29T16:16:36;11.20;99.90
10149;DHT22;5115;50.920;6.376;2022-12-29T16:19:36;11.10;99.90
10149;DHT22;5115;50.920;6.376;2022-12-29T16:22:09;11.10;99.90
10149;DHT22;5115;50.920;6.376;2022-12-29T16:24:38;12.00;99.90
10149;DHT22;5115;50.920;6.376;2022-12-29T16:27:08;11.20;99.90
10149;DHT22;5115;50.920;6.376;2022-12-29T16:29:35;11.00;99.90
10149;DHT22;5115;50.920;6.376;2022-12-29T16:32:02;11.00;99.90
10149;DHT22;5115;50.920;6.376;2022-12-29T16:37:32;10.90;99.90
10149;DHT22;5115;50.920;6.376;2022-12-29T16:42:49;10.80;99.90
10149;DHT22;5115;50.920;6.376;2022-12-29T16:50:30;11.00;99.90
10149;DHT22;5115;50.920;6.376;2022-12-29T16:52:56;10.90;99.90
10149;DHT22;5115;50.920;6.376;2022-12-29T16:55:22;10.90;99.90
10149;DHT22;5115;50.920;6.376;2022-12-29T16:57:50;10.90;99.90
10149;DHT22;5115;50.920;6.376;2022-12-29T17:00:21;10.90;99.90
10149;DHT22;5115;50.920;6.376;2022-12-29T17:02:48;10.90;99.90
10149;DHT22;5115;50.920;6.376;2022-12-29T17:05:17;10.90;99.90
10149;DHT22;5115;50.920;6.376;2022-12-29T17:07:44;10.80;99.90
10149;DHT22;5115;50.920;6.376;2022-12-29T17:10:10;10.80;99.90
10149;DHT22;5115;50.920;6.376;2022-12-29T17:12:37;10.80;99.90
10149;DHT22;5115;50.920;6.376;2022-12-29T17:17:54;10.80;99.90
10149;DHT22;5115;50.920;6.376;2022-12-29T17:20:30;10.80;99.90
10149;DHT22;5115;50.920;6.376;2022-12-29T17:22:56;10.80;99.90
10149;DHT22;5115;50.920;6.376;2022-12-29T17:25:32;10.80;99.90
10149;DHT22;5115;50.920;6.376;2022-12-29T17:28:02;10.70;99.90
10149;DHT22;5115;50.920;6.376;2022-12-29T17:30:32;10.60;99.90
10149;DHT22;5115;50.920;6.376;2022-12-29T17:33:04;10.60;99.90
10149;DHT22;5115;50.920;6.376;2022-12-29T17:35:30;10.70;99.90
10149;DHT22;5115;50.920;6.376;2022-12-29T17:37:56;10.70;99.90
10149;DHT22;5115;50.920;6.376;2022-12-29T17:40:24;10.70;99.90
10149;DHT22;5115;50.920;6.376;2022-12-29T17:42:56;10.70;99.90
10149;DHT22;5115;50.920;6.376;2022-12-29T17:45:29;10.80;99.90
10149;DHT22;5115;50.920;6.376;2022-12-29T17:47:56;10.70;99.90
10149;DHT22;5115;50.920;6.376;2022-12-29T17:50:25;10.70;99.90
10149;DHT22;5115;50.920;6.376;2022-12-29T17:52:55;10.50;99.90
10149;DHT22;5115;50.920;6.376;2022-12-29T17:55:23;10.40;99.90
10149;DHT22;5115;50.920;6.376;2022-12-29T17:57:49;10.40;99.90
10149;DHT22;5115;50.920;6.376;2022-12-29T18:00:24;10.30;99.90
10149;DHT22;5115;50.920;6.376;2022-12-29T18:02:52;10.30;99.90
10149;DHT22;5115;50.920;6.376;2022-12-29T18:05:28;10.20;99.90
10149;DHT22;5115;50.920;6.376;2022-12-29T18:07:56;10.30;99.90
10149;DHT22;5115;50.920;6.376;2022-12-29T18:10:24;10.20;99.90
10149;DHT22;5115;50.920;6.376;2022-12-29T18:12:53;10.20;99.90
10149;DHT22;5115;50.920;6.376;2022-12-29T18:15:23;10.20;99.90
10149;DHT22;5115;50.920;6.376;2022-12-29T18:17:53;10.10;99.90
10149;DHT22;5115;50.920;6.376;2022-12-29T18:20:19;10.10;99.90
10149;DHT22;5115;50.920;6.376;2022-12-29T18:22:44;10.00;99.90
10149;DHT22;5115;50.920;6.376;2022-12-29T18:25:25;9.90;99.90
10149;DHT22;5115;50.920;6.376;2022-12-29T18:27:52;9.80;99.90